createdAt,value
2023-01-28T00:00:00.742Z,3.3
2023-01-28T00:05:00.641Z,3.3
2023-01-28T00:10:00.633Z,3.4
2023-01-28T00:15:00.672Z,3.1
2023-01-28T00:20:00.643Z,2.9
2023-01-28T00:25:00.641Z,3.1
2023-01-28T00:30:00.662Z,3.2
2023-01-28T00:35:00.659Z,2.8
2023-01-28T00:40:00.652Z,2.6
2023-01-28T00:45:00.649Z,2.8
2023-01-28T00:50:00.635Z,3.0
2023-01-28T00:55:00.645Z,3.1
2023-01-28T01:00:00.646Z,3.2
2023-01-28T01:05:00.632Z,2.9
2023-01-28T01:10:00.659Z,3.0
2023-01-28T01:15:00.651Z,3.1
2023-01-28T01:20:00.628Z,3.0
2023-01-28T01:25:00.646Z,3.1
2023-01-28T01:30:00.646Z,3.2
2023-01-28T01:35:00.650Z,3.1
2023-01-28T01:40:00.659Z,3.0
2023-01-28T01:45:00.691Z,3.2
2023-01-28T01:50:00.633Z,3.0
2023-01-28T01:55:00.647Z,2.9
2023-01-28T02:00:00.635Z,3.0
2023-01-28T02:05:00.631Z,3.2
2023-01-28T02:10:00.672Z,3.1
2023-01-28T02:15:00.631Z,3.1
2023-01-28T02:20:00.648Z,3.0
2023-01-28T02:25:00.646Z,3.0
2023-01-28T02:30:00.608Z,3.1
2023-01-28T02:35:00.662Z,3.1
2023-01-28T02:40:00.634Z,3.1
2023-01-28T02:45:00.645Z,3.1
2023-01-28T02:50:00.628Z,3.1
2023-01-28T02:55:00.658Z,3.0
2023-01-28T03:00:00.650Z,3.0
2023-01-28T03:05:00.632Z,3.1
2023-01-28T03:10:00.651Z,3.1
2023-01-28T03:15:00.629Z,3.1
2023-01-28T03:20:00.621Z,3.0
2023-01-28T03:25:00.650Z,3.0
2023-01-28T03:30:00.622Z,3.0
2023-01-28T03:35:00.654Z,3.0
2023-01-28T03:40:00.630Z,2.9
2023-01-28T03:45:00.618Z,2.9
2023-01-28T03:50:00.662Z,3.0
2023-01-28T03:55:00.646Z,2.9
2023-01-28T04:00:00.654Z,2.9
2023-01-28T04:05:00.639Z,2.8
2023-01-28T04:10:00.631Z,2.5
2023-01-28T04:15:00.674Z,2.4
2023-01-28T04:20:00.612Z,2.3
2023-01-28T04:25:00.645Z,2.3
2023-01-28T04:30:00.646Z,2.5
2023-01-28T04:35:00.631Z,2.2
2023-01-28T04:40:00.641Z,2.1
2023-01-28T04:45:00.636Z,2.2
2023-01-28T04:50:00.668Z,2.3
2023-01-28T04:55:00.639Z,2.4
2023-01-28T05:00:00.646Z,2.1
2023-01-28T05:05:00.631Z,2.3
2023-01-28T05:10:00.637Z,2.3
2023-01-28T05:15:00.649Z,2.3
2023-01-28T05:20:00.652Z,2.1
2023-01-28T05:25:00.637Z,2.2
2023-01-28T05:30:00.634Z,2.0
2023-01-28T05:35:00.672Z,1.8
2023-01-28T05:40:00.642Z,2.0
2023-01-28T05:45:00.647Z,2.0
2023-01-28T05:50:00.651Z,1.9
2023-01-28T05:55:00.838Z,1.9
2023-01-28T06:00:00.626Z,1.9
2023-01-28T06:05:00.717Z,1.8
2023-01-28T06:10:00.647Z,1.8
2023-01-28T06:15:00.645Z,1.3
2023-01-28T06:20:00.640Z,1.6
2023-01-28T06:25:00.648Z,1.6
2023-01-28T06:30:00.655Z,1.3
2023-01-28T06:35:00.649Z,1.7
2023-01-28T06:40:00.641Z,1.7
2023-01-28T06:45:00.828Z,1.7
2023-01-28T06:50:00.636Z,1.4
2023-01-28T06:55:00.637Z,1.4
2023-01-28T07:00:00.693Z,1.3
2023-01-28T07:05:00.665Z,1.4
2023-01-28T07:10:00.631Z,1.1
2023-01-28T07:15:00.684Z,1.3
2023-01-28T07:20:00.629Z,1.2
2023-01-28T07:25:00.856Z,1.2
2023-01-28T07:30:00.615Z,1.2
2023-01-28T07:35:00.654Z,1.3
2023-01-28T07:40:00.643Z,1.1
2023-01-28T07:45:00.642Z,1.2
2023-01-28T07:50:00.640Z,1.2
2023-01-28T07:55:00.646Z,1.3
2023-01-28T08:00:00.674Z,1.1
2023-01-28T08:05:00.773Z,1.3
2023-01-28T08:10:00.634Z,1.6
2023-01-28T08:15:00.813Z,1.2
2023-01-28T08:20:00.638Z,1.2
2023-01-28T08:25:00.660Z,1.5
2023-01-28T08:30:00.610Z,1.9
2023-01-28T08:35:00.825Z,2.5
2023-01-28T08:40:00.623Z,2.3
2023-01-28T08:45:00.658Z,2.2
2023-01-28T08:50:00.651Z,2.3
2023-01-28T08:55:00.657Z,3.2
2023-01-28T09:00:00.607Z,3.7
2023-01-28T09:05:00.656Z,3.2
2023-01-28T09:10:00.657Z,3.7
2023-01-28T09:15:00.637Z,4.2
2023-01-28T09:20:00.643Z,4.7
2023-01-28T09:25:00.643Z,4.6
2023-01-28T09:30:00.640Z,5.2
2023-01-28T09:35:00.611Z,5.6
2023-01-28T09:40:00.666Z,6.0
2023-01-28T09:45:00.691Z,6.0
2023-01-28T09:50:00.604Z,7.0
2023-01-28T09:55:00.643Z,6.9
2023-01-28T10:00:00.695Z,6.7
2023-01-28T10:05:00.791Z,5.8
2023-01-28T10:10:00.608Z,4.7
2023-01-28T10:15:00.664Z,5.3
2023-01-28T10:20:00.603Z,5.4
2023-01-28T10:25:00.641Z,6.0
2023-01-28T10:30:00.741Z,5.8
2023-01-28T10:35:00.617Z,5.1
2023-01-28T10:40:00.641Z,4.9
2023-01-28T10:45:00.666Z,4.9
2023-01-28T10:50:00.645Z,4.8
2023-01-28T10:55:00.639Z,4.6
2023-01-28T11:00:00.776Z,4.6
2023-01-28T11:05:00.631Z,4.5
2023-01-28T11:10:00.640Z,5.1
2023-01-28T11:15:00.638Z,4.9
2023-01-28T11:20:00.830Z,4.9
2023-01-28T11:25:00.639Z,4.9
2023-01-28T11:30:00.652Z,5.3
2023-01-28T11:35:00.640Z,5.4
2023-01-28T11:40:00.817Z,5.1
2023-01-28T11:45:00.610Z,4.6
2023-01-28T11:50:00.664Z,5.1
2023-01-28T11:55:00.606Z,5.4
2023-01-28T12:00:00.691Z,5.0
2023-01-28T12:05:00.653Z,5.5
2023-01-28T12:10:00.677Z,5.3
2023-01-28T12:15:00.638Z,5.6
2023-01-28T12:20:00.648Z,5.2
2023-01-28T12:25:00.611Z,4.8
2023-01-28T12:30:00.657Z,5.0
2023-01-28T12:35:00.646Z,6.3
2023-01-28T12:40:00.660Z,5.5
2023-01-28T12:45:00.642Z,5.7
2023-01-28T12:50:00.659Z,5.1
2023-01-28T12:55:00.641Z,5.2
2023-01-28T13:00:00.643Z,4.5
2023-01-28T13:05:00.647Z,4.4
2023-01-28T13:10:00.667Z,4.8
2023-01-28T13:15:00.650Z,4.8
2023-01-28T13:20:00.616Z,4.7
2023-01-28T13:25:00.900Z,4.8
2023-01-28T13:30:00.632Z,4.6
2023-01-28T13:35:00.656Z,4.5
2023-01-28T13:40:00.663Z,4.3
2023-01-28T13:45:00.651Z,4.8
2023-01-28T13:50:00.617Z,4.2
2023-01-28T13:55:00.650Z,4.0
2023-01-28T14:00:00.641Z,3.9
2023-01-28T14:05:00.641Z,3.7
2023-01-28T14:10:00.646Z,3.9
2023-01-28T14:15:00.672Z,3.5
2023-01-28T14:20:00.627Z,3.7
2023-01-28T14:25:00.653Z,3.7
2023-01-28T14:30:00.647Z,3.5
2023-01-28T14:35:00.644Z,3.3
2023-01-28T14:40:00.636Z,3.3
2023-01-28T14:45:00.649Z,3.7
2023-01-28T14:50:00.783Z,3.5
2023-01-28T14:55:00.602Z,3.2
2023-01-28T15:00:00.668Z,3.3
2023-01-28T15:05:00.650Z,3.4
2023-01-28T15:10:00.659Z,3.6
2023-01-28T15:15:00.641Z,3.2
2023-01-28T15:20:00.731Z,3.5
2023-01-28T15:25:00.633Z,3.4
2023-01-28T15:30:00.626Z,3.5
2023-01-28T15:35:00.655Z,3.6
2023-01-28T15:40:00.797Z,3.5
2023-01-28T15:45:00.653Z,3.5
2023-01-28T15:50:00.639Z,3.6
2023-01-28T15:55:00.706Z,3.5
2023-01-28T16:00:00.661Z,3.5
2023-01-28T16:05:00.640Z,3.4
2023-01-28T16:10:00.645Z,3.5
2023-01-28T16:15:00.678Z,3.4
2023-01-28T16:20:00.685Z,3.4
2023-01-28T16:25:00.718Z,3.3
2023-01-28T16:30:00.713Z,3.3
2023-01-28T16:35:00.721Z,3.2
2023-01-28T16:40:02.236Z,3.2
2023-01-28T16:45:00.608Z,3.3
2023-01-28T16:50:00.749Z,3.2
2023-01-28T16:55:00.649Z,3.2
2023-01-28T17:00:00.732Z,3.0
2023-01-28T17:05:00.615Z,3.2
2023-01-28T17:10:00.682Z,3.0
2023-01-28T17:15:00.613Z,2.9
2023-01-28T17:20:00.643Z,3.0
2023-01-28T17:25:00.639Z,3.0
2023-01-28T17:30:00.670Z,3.0
2023-01-28T17:35:01.901Z,2.8
2023-01-28T17:40:00.639Z,3.1
2023-01-28T17:45:00.643Z,3.0
2023-01-28T17:50:00.629Z,3.1
2023-01-28T17:55:00.815Z,3.0
2023-01-28T18:00:00.630Z,2.9
2023-01-28T18:05:00.651Z,3.0
2023-01-28T18:10:00.812Z,2.9
2023-01-28T18:15:00.661Z,2.9
2023-01-28T18:20:00.649Z,2.9
2023-01-28T18:25:00.677Z,2.9
2023-01-28T18:30:00.647Z,2.9
2023-01-28T18:35:00.618Z,2.8
2023-01-28T18:40:00.672Z,2.6
2023-01-28T18:45:00.624Z,2.8
2023-01-28T18:50:00.675Z,2.9
2023-01-28T18:55:00.670Z,2.9
2023-01-28T19:00:00.688Z,2.7
2023-01-28T19:05:00.604Z,2.8
2023-01-28T19:10:00.666Z,2.9
2023-01-28T19:15:00.650Z,2.9
2023-01-28T19:20:00.635Z,2.9
2023-01-28T19:25:00.642Z,2.7
2023-01-28T19:30:00.661Z,2.7
2023-01-28T19:35:00.634Z,2.7
2023-01-28T19:40:00.649Z,2.6
2023-01-28T19:45:14.836Z,2.6
2023-01-28T19:50:00.644Z,3.8
2023-01-28T19:55:00.623Z,3.0
2023-01-28T20:00:00.656Z,2.7
2023-01-28T20:05:01.310Z,2.7
2023-01-28T20:10:00.651Z,2.5
2023-01-28T20:15:00.650Z,2.5
2023-01-28T20:20:00.628Z,2.5
2023-01-28T20:25:00.676Z,2.6
2023-01-28T20:30:00.654Z,2.5
2023-01-28T20:35:00.641Z,2.5
2023-01-28T20:40:00.655Z,2.4
2023-01-28T20:45:00.665Z,2.5
2023-01-28T20:50:00.625Z,2.4
2023-01-28T20:55:00.659Z,2.5
2023-01-28T21:00:00.658Z,2.5
2023-01-28T21:05:00.615Z,2.5
2023-01-28T21:10:02.347Z,2.5
2023-01-28T21:15:00.640Z,2.6
2023-01-28T21:20:00.644Z,2.6
2023-01-28T21:25:00.621Z,2.6
2023-01-28T21:30:00.673Z,2.6
2023-01-28T21:35:00.654Z,2.6
2023-01-28T21:40:00.649Z,2.5
2023-01-28T21:45:00.644Z,2.6
2023-01-28T21:50:00.697Z,2.8
2023-01-28T21:55:00.667Z,2.8
2023-01-28T22:00:00.649Z,2.7
2023-01-28T22:05:00.663Z,2.7
2023-01-28T22:10:00.665Z,2.6
2023-01-28T22:15:00.653Z,2.6
2023-01-28T22:20:00.617Z,2.7
2023-01-28T22:25:00.812Z,2.6
2023-01-28T22:30:00.666Z,2.8
2023-01-28T22:35:00.653Z,2.8
2023-01-28T22:40:00.645Z,2.8
2023-01-28T22:45:00.630Z,2.7
2023-01-28T22:50:00.672Z,2.7
2023-01-28T22:55:00.648Z,2.8
2023-01-28T23:00:01.005Z,2.8
2023-01-28T23:05:00.651Z,2.9
2023-01-28T23:10:00.635Z,2.7
2023-01-28T23:15:00.636Z,2.7
2023-01-28T23:20:00.681Z,2.8
2023-01-28T23:25:00.606Z,2.6
2023-01-28T23:30:00.657Z,2.7
2023-01-28T23:35:00.697Z,2.8
2023-01-28T23:40:00.667Z,2.8
2023-01-28T23:45:00.660Z,2.8
2023-01-28T23:50:00.642Z,2.7
2023-01-28T23:55:00.661Z,2.8
